Time;durP1;ratioP1;P1;durP2;ratioP2;P2;SDS_P1;SDS_P2;PMS_P1;PMS_P2;Temp;Humidity;BMP_temperature;BMP_pressure;BME280_temperature;BME280_humidity;BME280_pressure;Samples;Min_cycle;Max_cycle;Signal;HPM_P1;HPM_P2
2022/08/26 00:00:33;;;;;;;12.82;5.90;;;21.20;99.90;;;;;;5124695;27;20049;-70
2022/08/26 00:02:59;;;;;;;9.18;5.28;;;21.20;99.90;;;;;;5141339;27;20042;-71
2022/08/26 00:05:25;;;;;;;10.68;5.18;;;21.20;99.90;;;;;;5140589;27;20043;-70
2022/08/26 00:07:52;;;;;;;10.23;4.90;;;21.20;99.90;;;;;;5122452;27;20073;-70
2022/08/26 00:10:18;;;;;;;8.52;4.80;;;21.10;99.90;;;;;;5122645;27;20039;-70
2022/08/26 00:12:44;;;;;;;7.55;4.30;;;21.10;99.90;;;;;;5143387;27;20038;-70
2022/08/26 00:15:12;;;;;;;10.25;5.15;;;21.00;99.90;;;;;;5139886;27;20044;-70
2022/08/26 00:17:38;;;;;;;9.27;5.13;;;21.00;99.90;;;;;;5128666;27;20515;-70
2022/08/26 00:20:06;;;;;;;10.75;4.88;;;20.90;99.90;;;;;;5136184;27;20039;-70
2022/08/26 00:22:35;;;;;;;10.55;4.85;;;21.00;99.90;;;;;;5143497;27;20048;-70
2022/08/26 00:25:02;;;;;;;8.98;4.28;;;20.90;99.90;;;;;;5139975;27;20126;-70
2022/08/26 00:27:32;;;;;;;10.07;4.20;;;21.00;99.90;;;;;;5143596;27;20405;-72
2022/08/26 00:29:59;;;;;;;6.38;3.60;;;21.00;99.90;;;;;;5139927;27;20035;-70
2022/08/26 00:32:24;;;;;;;8.63;3.30;;;20.90;99.90;;;;;;5140252;27;20049;-70
2022/08/26 00:34:50;;;;;;;8.80;3.50;;;20.90;99.90;;;;;;5141146;27;20122;-70
2022/08/26 00:37:16;;;;;;;8.38;3.45;;;20.90;99.90;;;;;;5142357;27;20055;-70
2022/08/26 00:39:42;;;;;;;6.43;2.90;;;20.80;99.90;;;;;;5139615;27;20134;-70
2022/08/26 00:42:07;;;;;;;7.45;2.90;;;20.90;99.90;;;;;;5120747;27;20565;-69
2022/08/26 00:44:33;;;;;;;7.05;2.50;;;20.80;99.90;;;;;;5133691;27;20069;-71
2022/08/26 00:47:02;;;;;;;7.53;2.70;;;20.80;99.90;;;;;;5140684;27;20043;-69
2022/08/26 00:49:39;;;;;;;9.15;2.75;;;20.80;99.90;;;;;;5142860;27;20035;-71
2022/08/26 00:52:09;;;;;;;5.80;2.50;;;20.80;99.90;;;;;;5118703;27;20043;-69
2022/08/26 00:54:45;;;;;;;9.70;2.88;;;20.80;99.90;;;;;;5147489;27;20119;-70
2022/08/26 00:57:15;;;;;;;6.40;2.20;;;20.70;99.90;;;;;;5124809;27;20058;-70
2022/08/26 00:59:42;;;;;;;6.03;2.40;;;20.70;99.90;;;;;;5128462;27;20035;-70
2022/08/26 01:02:08;;;;;;;7.88;2.42;;;20.70;99.90;;;;;;5124976;27;20126;-69
2022/08/26 01:04:37;;;;;;;7.30;2.28;;;20.60;99.90;;;;;;5138851;27;20131;-69
2022/08/26 01:07:03;;;;;;;6.57;2.10;;;20.60;99.90;;;;;;5119176;27;20050;-69
2022/08/26 01:09:30;;;;;;;9.90;2.28;;;20.60;99.90;;;;;;5121931;27;20447;-69
2022/08/26 01:12:01;;;;;;;5.90;1.80;;;20.50;99.90;;;;;;5135740;27;20126;-68
2022/08/26 01:14:32;;;;;;;7.28;1.80;;;20.50;99.90;;;;;;5122008;27;20485;-72
2022/08/26 01:17:02;;;;;;;5.25;1.83;;;20.50;99.90;;;;;;5117745;27;20168;-68
2022/08/26 01:19:35;;;;;;;7.63;1.88;;;20.50;99.90;;;;;;5135820;27;20062;-70
2022/08/26 01:22:10;;;;;;;6.85;1.73;;;20.40;99.90;;;;;;5124406;27;20043;-70
2022/08/26 01:24:37;;;;;;;7.78;1.88;;;20.30;99.90;;;;;;5122358;27;20144;-69
2022/08/26 01:27:07;;;;;;;4.45;1.48;;;20.40;99.90;;;;;;5126434;27;20113;-70
2022/08/26 01:29:34;;;;;;;5.32;1.35;;;20.30;99.90;;;;;;5143160;27;20043;-69
2022/08/26 01:32:03;;;;;;;5.13;1.33;;;20.20;99.90;;;;;;5144669;27;20031;-70
2022/08/26 01:34:31;;;;;;;4.00;1.05;;;20.20;99.90;;;;;;5143062;27;20071;-70
2022/08/26 01:37:16;;;;;;;4.75;1.55;;;20.20;99.90;;;;;;5128065;27;20122;-69
2022/08/26 01:39:45;;;;;;;6.25;1.40;;;20.20;99.90;;;;;;5126412;27;20148;-69
2022/08/26 01:42:13;;;;;;;5.55;1.20;;;20.20;99.90;;;;;;5125553;27;20175;-69
2022/08/26 01:44:44;;;;;;;4.85;1.20;;;20.10;99.90;;;;;;5126983;27;20429;-69
2022/08/26 01:47:15;;;;;;;4.88;1.60;;;20.10;99.90;;;;;;5144058;27;20527;-69
2022/08/26 01:49:43;;;;;;;6.60;1.48;;;20.10;99.90;;;;;;5144587;27;20027;-69
2022/08/26 01:52:13;;;;;;;7.18;1.52;;;20.00;99.90;;;;;;5144091;27;20043;-69
2022/08/26 01:54:39;;;;;;;6.95;1.50;;;20.10;99.90;;;;;;5125717;27;20038;-69
2022/08/26 01:57:06;;;;;;;6.00;1.58;;;20.10;99.90;;;;;;5144192;27;20043;-69
2022/08/26 01:59:31;;;;;;;5.75;1.42;;;20.10;99.90;;;;;;5144663;27;20155;-69
2022/08/26 02:01:57;;;;;;;9.13;1.65;;;20.10;99.90;;;;;;5125049;27;20105;-69
2022/08/26 02:04:28;;;;;;;8.30;1.77;;;20.10;99.90;;;;;;5125502;27;20035;-70
2022/08/26 02:06:55;;;;;;;5.95;1.77;;;20.20;99.90;;;;;;5123755;27;20046;-69
2022/08/26 02:09:25;;;;;;;10.07;1.65;;;20.20;99.90;;;;;;5127866;27;20390;-69
2022/08/26 02:11:51;;;;;;;6.70;1.50;;;20.20;99.90;;;;;;5123972;27;20035;-69
2022/08/26 02:14:21;;;;;;;7.18;1.63;;;20.20;99.90;;;;;;5145350;27;20099;-68
2022/08/26 02:16:51;;;;;;;4.18;1.65;;;20.20;99.90;;;;;;5138717;27;20047;-69
2022/08/26 02:19:21;;;;;;;9.40;1.85;;;20.20;99.90;;;;;;5138714;27;20035;-67
2022/08/26 02:21:48;;;;;;;8.70;1.77;;;20.30;99.90;;;;;;5119683;27;20042;-68
2022/08/26 02:24:17;;;;;;;9.45;1.80;;;20.30;99.90;;;;;;5137772;27;20077;-68
2022/08/26 02:26:44;;;;;;;9.45;2.03;;;20.30;99.90;;;;;;5138215;27;20047;-69
2022/08/26 02:29:34;;;;;;;8.10;2.15;;;20.30;99.90;;;;;;5126104;27;20086;-69
2022/08/26 02:32:00;;;;;;;6.45;1.70;;;20.30;99.90;;;;;;5141984;27;20046;-68
2022/08/26 02:34:31;;;;;;;5.63;1.50;;;20.20;99.90;;;;;;5141742;27;20134;-68
2022/08/26 02:36:59;;;;;;;7.18;1.42;;;20.30;99.90;;;;;;5143544;27;20120;-68
2022/08/26 02:39:25;;;;;;;6.70;1.60;;;20.30;99.90;;;;;;5144377;27;20060;-67
2022/08/26 02:41:51;;;;;;;6.60;1.60;;;20.20;99.90;;;;;;5126982;27;20485;-68
2022/08/26 02:44:17;;;;;;;6.32;1.67;;;20.20;99.90;;;;;;5123594;27;20125;-67
2022/08/26 02:46:43;;;;;;;6.80;1.90;;;20.20;99.90;;;;;;5141698;27;20081;-67
2022/08/26 02:49:12;;;;;;;6.22;1.60;;;20.20;99.90;;;;;;5122480;27;20071;-68
2022/08/26 02:51:37;;;;;;;5.57;1.58;;;20.20;99.90;;;;;;5126964;27;20043;-68
2022/08/26 02:54:03;;;;;;;10.15;1.83;;;20.20;99.90;;;;;;5124073;27;20046;-69
2022/08/26 02:56:32;;;;;;;6.60;1.60;;;20.20;99.90;;;;;;5124986;27;20470;-68
2022/08/26 02:58:58;;;;;;;9.13;2.08;;;20.20;99.90;;;;;;5124380;27;20042;-68
2022/08/26 03:01:31;;;;;;;9.07;1.83;;;20.10;99.90;;;;;;5124916;27;20043;-68
2022/08/26 03:03:57;;;;;;;7.05;1.90;;;20.10;99.90;;;;;;5125439;27;20047;-68
2022/08/26 03:06:23;;;;;;;8.63;2.05;;;20.20;99.90;;;;;;5125057;27;20070;-68
2022/08/26 03:08:50;;;;;;;6.82;1.55;;;20.20;99.90;;;;;;5143901;27;20513;-68
2022/08/26 03:11:17;;;;;;;8.70;1.83;;;20.10;99.90;;;;;;5141878;27;20039;-68
2022/08/26 03:13:44;;;;;;;9.27;1.85;;;20.10;99.90;;;;;;5144255;27;20508;-68
2022/08/26 03:16:10;;;;;;;7.03;1.63;;;20.10;99.90;;;;;;5143062;27;20043;-68
2022/08/26 03:18:36;;;;;;;9.05;1.70;;;20.10;99.90;;;;;;5122409;27;20104;-68
2022/08/26 03:21:20;;;;;;;9.00;1.83;;;20.10;99.90;;;;;;5144538;27;20474;-68
2022/08/26 03:23:45;;;;;;;6.80;1.73;;;20.00;99.90;;;;;;5138814;27;20039;-68
2022/08/26 03:26:13;;;;;;;9.90;1.80;;;20.10;99.90;;;;;;5143897;27;20054;-70
2022/08/26 03:30:38;;;;;;;8.75;1.88;;;20.10;99.90;;;;;;5122840;27;20126;-68
2022/08/26 03:31:25;;;;;;;7.38;1.63;;;20.00;99.90;;;;;;5142019;27;20074;-68
2022/08/26 03:33:50;;;;;;;7.55;1.80;;;20.10;99.90;;;;;;5123705;27;20070;-68
2022/08/26 03:36:16;;;;;;;7.57;1.92;;;20.10;99.90;;;;;;5124307;27;20096;-68
2022/08/26 03:38:42;;;;;;;10.05;1.85;;;20.10;99.90;;;;;;5140167;27;20083;-68
2022/08/26 03:41:10;;;;;;;7.60;2.17;;;20.00;99.90;;;;;;5141056;27;20047;-68
2022/08/26 03:43:36;;;;;;;5.00;1.50;;;20.10;99.90;;;;;;5126254;27;20077;-68
2022/08/26 03:46:10;;;;;;;8.82;1.95;;;20.00;99.90;;;;;;5119164;28;20129;-68
2022/08/26 03:48:36;;;;;;;12.23;1.85;;;20.00;99.90;;;;;;5119299;27;20088;-68
2022/08/26 03:51:04;;;;;;;4.68;1.40;;;20.00;99.90;;;;;;5144655;27;20047;-68
2022/08/26 03:53:29;;;;;;;5.90;1.45;;;20.00;99.90;;;;;;5117590;28;20039;-68
2022/08/26 03:55:56;;;;;;;5.30;1.50;;;19.90;99.90;;;;;;5144183;27;20076;-69
2022/08/26 03:58:25;;;;;;;7.60;1.80;;;19.90;99.90;;;;;;5123693;27;20364;-68
2022/08/26 04:00:51;;;;;;;6.00;1.70;;;19.80;99.90;;;;;;5139158;27;20110;-68
2022/08/26 04:03:56;;;;;;;7.40;1.63;;;19.80;99.90;;;;;;5124928;27;20082;-68
2022/08/26 04:06:02;;;;;;;6.25;1.80;;;19.80;99.90;;;;;;5136266;27;20055;-68
2022/08/26 04:08:28;;;;;;;8.07;2.05;;;19.80;99.90;;;;;;5125957;27;20030;-68
2022/08/26 04:10:54;;;;;;;6.78;2.08;;;19.80;99.90;;;;;;5140580;27;20060;-69
2022/08/26 04:13:19;;;;;;;6.40;1.60;;;19.80;99.90;;;;;;5142823;27;20133;-68
2022/08/26 04:15:45;;;;;;;6.38;1.83;;;19.80;99.90;;;;;;5138735;27;20043;-69
2022/08/26 04:18:11;;;;;;;8.80;1.90;;;19.80;99.90;;;;;;5124118;27;20054;-69
2022/08/26 04:20:36;;;;;;;8.27;2.22;;;19.80;99.90;;;;;;5124172;27;20042;-68
2022/08/26 04:23:03;;;;;;;9.38;2.50;;;19.90;99.90;;;;;;5141061;27;20494;-69
2022/08/26 04:25:29;;;;;;;7.45;1.60;;;19.80;99.90;;;;;;5143963;27;20043;-69
2022/08/26 04:27:55;;;;;;;5.88;1.50;;;19.80;99.90;;;;;;5124789;27;20092;-69
2022/08/26 04:30:21;;;;;;;12.57;2.42;;;19.80;99.90;;;;;;5129402;27;20035;-69
2022/08/26 04:32:47;;;;;;;7.40;2.17;;;19.80;99.90;;;;;;5126506;27;20054;-69
2022/08/26 04:35:13;;;;;;;7.47;2.17;;;19.70;99.90;;;;;;5145565;27;20042;-70
2022/08/26 04:37:39;;;;;;;12.25;2.28;;;19.70;99.90;;;;;;5127340;27;20043;-70
2022/08/26 04:40:08;;;;;;;8.00;1.92;;;19.60;99.90;;;;;;5145621;27;20073;-70
2022/08/26 04:42:34;;;;;;;6.25;1.88;;;19.60;99.90;;;;;;5127048;27;20121;-70
2022/08/26 04:45:00;;;;;;;7.60;2.10;;;19.50;99.90;;;;;;5142876;27;20471;-70
2022/08/26 04:47:26;;;;;;;6.90;1.50;;;19.50;99.90;;;;;;5127021;27;20126;-70
2022/08/26 04:49:54;;;;;;;6.45;1.88;;;19.50;99.90;;;;;;5124958;27;20514;-70
2022/08/26 04:52:20;;;;;;;5.25;1.55;;;19.50;99.90;;;;;;5121776;27;20071;-70
2022/08/26 04:54:46;;;;;;;8.48;1.80;;;19.50;99.90;;;;;;5122254;27;20398;-70
2022/08/26 04:57:12;;;;;;;6.15;1.77;;;19.50;99.90;;;;;;5145916;27;20051;-71
2022/08/26 04:59:37;;;;;;;9.80;1.77;;;19.50;99.90;;;;;;5145189;27;20031;-70
2022/08/26 05:02:03;;;;;;;7.93;1.60;;;19.50;99.90;;;;;;5124492;27;20030;-70
2022/08/26 05:04:29;;;;;;;9.13;1.88;;;19.50;99.90;;;;;;5126498;27;20031;-71
2022/08/26 05:06:55;;;;;;;6.97;1.70;;;19.50;99.90;;;;;;5135686;27;20042;-70
2022/08/26 05:09:21;;;;;;;4.55;1.13;;;19.40;99.90;;;;;;5143236;27;20814;-71
2022/08/26 05:11:47;;;;;;;8.27;1.90;;;19.50;99.90;;;;;;5123275;27;20053;-70
2022/08/26 05:14:13;;;;;;;7.13;2.00;;;19.50;99.90;;;;;;5124510;27;20039;-70
2022/08/26 05:16:39;;;;;;;8.18;1.75;;;19.40;99.90;;;;;;5125985;27;20038;-71
2022/08/26 05:19:05;;;;;;;8.85;1.80;;;19.50;99.90;;;;;;5143321;27;20087;-71
2022/08/26 05:21:32;;;;;;;6.60;1.60;;;19.50;99.90;;;;;;5143296;27;20031;-71
2022/08/26 05:23:59;;;;;;;6.63;1.50;;;19.50;99.90;;;;;;5138343;27;20409;-71
2022/08/26 05:26:29;;;;;;;7.30;1.40;;;19.50;99.90;;;;;;5130393;27;20442;-71
2022/08/26 05:28:56;;;;;;;6.38;1.58;;;19.50;99.90;;;;;;5149192;27;20045;-71
2022/08/26 05:31:26;;;;;;;8.70;2.10;;;19.40;99.90;;;;;;5132581;27;20034;-72
2022/08/26 05:33:52;;;;;;;7.72;1.50;;;19.40;99.90;;;;;;5124115;27;20095;-70
2022/08/26 05:36:21;;;;;;;5.47;1.40;;;19.40;99.90;;;;;;5144763;27;20038;-71
2022/08/26 05:38:47;;;;;;;8.02;1.50;;;19.40;99.90;;;;;;5141924;27;20136;-71
2022/08/26 05:41:16;;;;;;;8.30;1.88;;;19.40;99.90;;;;;;5128162;27;20072;-71
2022/08/26 05:43:42;;;;;;;4.85;1.58;;;19.40;99.90;;;;;;5120439;27;20126;-71
2022/08/26 05:46:08;;;;;;;6.53;1.40;;;19.40;99.90;;;;;;5144623;27;20127;-71
2022/08/26 05:48:33;;;;;;;6.50;1.33;;;19.50;99.90;;;;;;5142570;27;21533;-71
2022/08/26 05:51:05;;;;;;;7.43;1.45;;;19.40;99.90;;;;;;5117987;27;20046;-71
2022/08/26 05:53:31;;;;;;;6.75;1.50;;;19.50;99.90;;;;;;5119735;27;20035;-72
2022/08/26 05:55:58;;;;;;;8.25;1.33;;;19.50;99.90;;;;;;5119161;27;20047;-71
2022/08/26 05:58:25;;;;;;;8.13;1.50;;;19.50;99.90;;;;;;5117564;27;20495;-71
2022/08/26 06:01:04;;;;;;;5.80;1.40;;;19.60;99.90;;;;;;5123080;27;20040;-71
2022/08/26 06:03:32;;;;;;;8.15;1.73;;;19.60;99.90;;;;;;5127054;27;20049;-69
2022/08/26 06:06:01;;;;;;;6.20;1.20;;;19.60;99.90;;;;;;5124696;27;20054;-69
2022/08/26 06:08:27;;;;;;;4.90;1.30;;;19.60;99.90;;;;;;5125525;27;20078;-69
2022/08/26 06:10:55;;;;;;;6.18;1.60;;;19.50;99.90;;;;;;5143217;27;20070;-69
2022/08/26 06:13:26;;;;;;;5.47;1.40;;;19.50;99.90;;;;;;5141787;27;20043;-69
2022/08/26 06:15:53;;;;;;;7.72;1.45;;;19.50;99.90;;;;;;5138969;27;20035;-69
2022/08/26 06:18:29;;;;;;;5.47;1.40;;;19.50;99.90;;;;;;5143610;27;20055;-68
2022/08/26 06:20:55;;;;;;;5.63;1.60;;;19.50;99.90;;;;;;5142621;27;20088;-69
2022/08/26 06:26:05;;;;;;;6.20;1.92;;;19.60;99.90;;;;;;5095689;28;20048;-70
2022/08/26 06:28:33;;;;;;;5.95;1.92;;;19.60;99.90;;;;;;5102312;28;20039;-66
2022/08/26 06:31:02;;;;;;;8.23;1.65;;;19.60;99.90;;;;;;5098909;28;20032;-71
2022/08/26 06:33:28;;;;;;;6.78;1.60;;;19.70;99.90;;;;;;5100641;28;20040;-67
2022/08/26 06:35:54;;;;;;;6.32;1.60;;;19.70;99.90;;;;;;5103202;28;20084;-67
2022/08/26 06:38:20;;;;;;;8.45;1.70;;;19.70;99.90;;;;;;5102390;28;20122;-70
2022/08/26 06:40:51;;;;;;;9.20;1.92;;;19.80;99.90;;;;;;5100231;28;20036;-68
2022/08/26 06:43:19;;;;;;;8.23;1.73;;;19.80;99.90;;;;;;5101243;28;20052;-67
2022/08/26 06:45:46;;;;;;;6.13;1.40;;;19.70;99.90;;;;;;5101029;28;20125;-68
2022/08/26 06:48:13;;;;;;;6.50;1.40;;;19.90;99.90;;;;;;5102088;28;20039;-69
2022/08/26 06:50:40;;;;;;;7.28;1.98;;;19.90;99.90;;;;;;5100805;28;20066;-70
2022/08/26 06:53:06;;;;;;;6.05;1.30;;;19.90;99.90;;;;;;5101698;28;20042;-65
2022/08/26 06:55:37;;;;;;;8.43;1.70;;;19.90;99.90;;;;;;5098879;28;20391;-68
2022/08/26 06:58:03;;;;;;;4.47;1.20;;;19.90;99.90;;;;;;5102262;28;20047;-66
2022/08/26 07:00:31;;;;;;;8.50;1.70;;;19.90;99.90;;;;;;5103182;28;20038;-69
2022/08/26 07:02:56;;;;;;;4.93;1.38;;;19.90;99.90;;;;;;5097860;28;20044;-67
2022/08/26 07:05:22;;;;;;;4.03;1.25;;;19.90;99.90;;;;;;5102121;28;20039;-68
2022/08/26 07:07:48;;;;;;;5.72;1.30;;;19.90;99.90;;;;;;5100337;28;20112;-71
2022/08/26 07:10:14;;;;;;;6.78;1.70;;;19.90;99.90;;;;;;5099440;28;20476;-68
2022/08/26 07:12:40;;;;;;;5.32;1.40;;;19.80;99.90;;;;;;5102729;28;20043;-71
2022/08/26 07:15:09;;;;;;;5.57;1.40;;;19.80;99.90;;;;;;5100779;28;20040;-71
2022/08/26 07:17:35;;;;;;;5.40;1.40;;;19.90;99.90;;;;;;5099250;28;20471;-71
2022/08/26 07:20:02;;;;;;;6.35;1.30;;;19.80;99.90;;;;;;5098720;28;20043;-71
2022/08/26 07:22:28;;;;;;;5.78;1.42;;;19.90;99.90;;;;;;5102415;28;20032;-70
2022/08/26 07:24:53;;;;;;;6.50;1.40;;;19.90;99.90;;;;;;5109296;27;20491;-72
2022/08/26 07:27:19;;;;;;;4.05;1.10;;;19.90;99.90;;;;;;5121663;27;20099;-71
2022/08/26 07:29:45;;;;;;;5.18;1.20;;;19.90;99.90;;;;;;5118805;27;20035;-69
2022/08/26 07:32:13;;;;;;;4.90;1.27;;;20.00;99.90;;;;;;5117717;27;20043;-66
2022/08/26 07:34:40;;;;;;;5.45;1.20;;;20.00;99.90;;;;;;5121750;27;20510;-67
2022/08/26 07:37:06;;;;;;;5.72;1.38;;;20.00;99.90;;;;;;5119832;27;20207;-67
2022/08/26 07:39:32;;;;;;;6.03;1.55;;;20.00;99.90;;;;;;5121218;28;20114;-67
2022/08/26 07:42:00;;;;;;;4.82;1.10;;;20.00;99.90;;;;;;5122209;27;20479;-67
2022/08/26 07:44:26;;;;;;;4.85;1.17;;;20.00;99.90;;;;;;5118600;28;20467;-67
2022/08/26 07:46:52;;;;;;;5.25;1.30;;;20.00;99.90;;;;;;5121642;28;20039;-66
2022/08/26 07:49:18;;;;;;;4.97;1.52;;;19.90;99.90;;;;;;5119183;28;20057;-66
2022/08/26 07:51:44;;;;;;;4.30;1.20;;;19.90;99.90;;;;;;5121089;28;20048;-69
2022/08/26 07:54:10;;;;;;;6.32;1.40;;;19.90;99.90;;;;;;5119509;28;20055;-66
2022/08/26 07:56:36;;;;;;;6.13;1.20;;;19.90;99.90;;;;;;5114172;28;20463;-67
2022/08/26 07:59:02;;;;;;;5.75;1.33;;;19.90;99.90;;;;;;5112856;28;20036;-69
2022/08/26 08:01:30;;;;;;;4.18;1.08;;;19.80;99.90;;;;;;5114680;27;20078;-68
2022/08/26 08:03:56;;;;;;;4.80;1.20;;;19.80;99.90;;;;;;5117665;27;20036;-71
2022/08/26 08:06:24;;;;;;;4.57;1.15;;;19.70;99.90;;;;;;5115961;27;20457;-71
2022/08/26 08:08:50;;;;;;;5.03;1.30;;;19.70;99.90;;;;;;5117782;27;20023;-69
2022/08/26 08:11:19;;;;;;;6.45;1.38;;;19.80;99.90;;;;;;5117051;27;20380;-72
2022/08/26 08:13:45;;;;;;;5.78;1.30;;;19.70;99.90;;;;;;5125353;27;20360;-72
2022/08/26 08:16:11;;;;;;;3.47;1.00;;;19.70;99.90;;;;;;5123383;27;20043;-71
2022/08/26 08:18:36;;;;;;;5.88;1.20;;;19.80;99.90;;;;;;5123795;27;20077;-71
2022/08/26 08:21:03;;;;;;;7.63;1.40;;;19.80;99.90;;;;;;5118066;27;20035;-70
2022/08/26 08:23:30;;;;;;;5.20;1.38;;;19.90;99.90;;;;;;5121161;27;20055;-71
2022/08/26 08:26:04;;;;;;;8.10;1.45;;;19.90;99.90;;;;;;5146775;27;20046;-70
2022/08/26 08:28:30;;;;;;;6.38;1.20;;;19.90;99.90;;;;;;5122863;27;20043;-71
2022/08/26 08:30:56;;;;;;;4.10;1.20;;;19.90;99.90;;;;;;5128533;27;20061;-71
2022/08/26 08:33:23;;;;;;;7.68;1.60;;;19.90;99.90;;;;;;5126756;27;20158;-67
2022/08/26 08:35:48;;;;;;;7.05;1.58;;;19.80;99.90;;;;;;5121797;27;20039;-67
2022/08/26 08:38:14;;;;;;;6.68;1.20;;;19.80;99.90;;;;;;5148073;27;20053;-67
2022/08/26 08:40:43;;;;;;;5.25;1.42;;;19.80;99.90;;;;;;5124302;27;20371;-71
2022/08/26 08:43:13;;;;;;;5.63;1.40;;;19.90;99.90;;;;;;5126152;27;20046;-68
2022/08/26 08:45:48;;;;;;;4.57;1.08;;;19.90;99.90;;;;;;5120269;27;20043;-68
2022/08/26 08:48:25;;;;;;;5.22;1.20;;;19.90;99.90;;;;;;5120979;27;20126;-71
2022/08/26 08:51:03;;;;;;;5.78;1.30;;;19.90;99.90;;;;;;5123209;27;20047;-70
2022/08/26 08:53:40;;;;;;;6.10;1.23;;;20.00;99.90;;;;;;5121056;27;20176;-68
2022/08/26 08:56:29;;;;;;;5.68;1.17;;;19.90;99.90;;;;;;5119002;27;20050;-69
2022/08/26 08:58:58;;;;;;;4.80;1.65;;;20.00;99.90;;;;;;5122840;27;20388;-63
2022/08/26 09:01:43;;;;;;;6.10;1.10;;;20.00;99.90;;;;;;5145365;27;20078;-63
2022/08/26 09:04:45;;;;;;;4.25;1.17;;;20.10;99.90;;;;;;5141067;27;20045;-62
2022/08/26 09:07:17;;;;;;;3.47;1.00;;;20.10;99.90;;;;;;5121444;27;20055;-64
2022/08/26 09:10:02;;;;;;;4.35;1.10;;;20.20;99.90;;;;;;5140119;27;20100;-64
2022/08/26 09:12:30;;;;;;;4.47;1.00;;;20.20;99.90;;;;;;5125631;27;20205;-63
2022/08/26 09:15:35;;;;;;;3.75;0.90;;;20.10;99.90;;;;;;5126735;27;20054;-63
2022/08/26 09:18:27;;;;;;;5.45;1.30;;;20.20;99.90;;;;;;5116999;27;20542;-65
2022/08/26 09:21:08;;;;;;;5.45;1.08;;;20.20;99.90;;;;;;5140125;27;20082;-63
2022/08/26 09:23:37;;;;;;;6.40;1.23;;;20.30;99.90;;;;;;5136277;27;20039;-63
2022/08/26 09:26:24;;;;;;;4.47;1.20;;;20.20;99.90;;;;;;5116357;27;20055;-63
2022/08/26 09:29:24;;;;;;;4.38;1.13;;;20.30;99.90;;;;;;5135762;27;20043;-62
2022/08/26 09:32:08;;;;;;;2.65;0.85;;;20.40;99.90;;;;;;5126141;27;20047;-63
2022/08/26 09:34:54;;;;;;;6.93;1.00;;;20.40;99.90;;;;;;5116861;27;20047;-62
2022/08/26 09:37:42;;;;;;;7.65;1.30;;;20.60;99.90;;;;;;5134114;27;20043;-64
2022/08/26 09:40:31;;;;;;;5.95;1.20;;;20.80;99.90;;;;;;5135197;27;20047;-67
2022/08/26 09:43:21;;;;;;;5.20;1.60;;;20.70;99.90;;;;;;5116637;27;20457;-64
2022/08/26 09:45:54;;;;;;;5.07;1.15;;;20.70;99.90;;;;;;5116641;27;20042;-63
2022/08/26 09:48:33;;;;;;;5.03;1.40;;;20.70;99.90;;;;;;5125113;27;20051;-63
2022/08/26 09:51:02;;;;;;;5.10;1.00;;;20.70;99.90;;;;;;5126701;27;20038;-64
2022/08/26 09:53:32;;;;;;;3.42;0.88;;;20.60;99.90;;;;;;5141514;27;20040;-63
2022/08/26 09:56:17;;;;;;;6.03;1.02;;;20.50;99.90;;;;;;5142069;27;20058;-63
2022/08/26 09:58:46;;;;;;;4.78;1.33;;;20.50;99.90;;;;;;5141017;27;20111;-64
2022/08/26 10:01:41;;;;;;;4.97;1.33;;;20.40;99.90;;;;;;5123425;27;20077;-65
2022/08/26 10:04:19;;;;;;;4.20;1.08;;;20.30;99.90;;;;;;5139512;27;20108;-65
2022/08/26 10:07:04;;;;;;;5.90;1.20;;;20.30;99.90;;;;;;5124489;27;20071;-66
2022/08/26 10:09:35;;;;;;;6.53;1.27;;;20.40;99.90;;;;;;5110718;27;20056;-66
2022/08/26 10:12:12;;;;;;;4.38;1.00;;;20.30;99.90;;;;;;5119019;27;20121;-66
2022/08/26 10:15:00;;;;;;;6.63;1.20;;;20.40;99.90;;;;;;5144946;27;20042;-66
2022/08/26 10:17:44;;;;;;;5.05;1.20;;;20.40;99.90;;;;;;5119096;27;20043;-66
2022/08/26 10:20:18;;;;;;;6.32;1.58;;;20.40;99.90;;;;;;5116007;27;20068;-66
2022/08/26 10:23:05;;;;;;;4.15;1.00;;;20.50;99.90;;;;;;5144094;27;20131;-66
2022/08/26 10:25:44;;;;;;;3.85;1.20;;;20.60;99.90;;;;;;5119697;27;20059;-65
2022/08/26 10:28:34;;;;;;;3.75;0.82;;;20.70;99.90;;;;;;5133370;27;20097;-65
2022/08/26 10:31:07;;;;;;;3.25;0.90;;;20.80;99.90;;;;;;5112786;27;20566;-66
2022/08/26 10:33:33;;;;;;;5.40;1.02;;;20.90;99.90;;;;;;5142065;27;20042;-68
2022/08/26 10:36:05;;;;;;;5.47;1.20;;;21.00;99.90;;;;;;5117038;27;20497;-67
2022/08/26 10:38:37;;;;;;;5.38;1.27;;;21.10;99.90;;;;;;5114505;27;20047;-68
2022/08/26 10:41:17;;;;;;;3.40;1.00;;;21.20;99.90;;;;;;5106964;27;20047;-67
2022/08/26 10:43:48;;;;;;;5.00;1.30;;;21.30;99.90;;;;;;5134915;27;20467;-69
2022/08/26 10:46:19;;;;;;;4.63;1.25;;;21.30;99.90;;;;;;5116499;27;20130;-67
2022/08/26 10:48:47;;;;;;;4.72;1.02;;;21.20;99.90;;;;;;5134455;27;20050;-66
2022/08/26 10:51:25;;;;;;;5.13;1.08;;;21.20;99.90;;;;;;5142085;27;20042;-71
2022/08/26 10:53:58;;;;;;;3.25;1.08;;;21.20;99.90;;;;;;5138835;27;20046;-65
2022/08/26 10:56:28;;;;;;;4.53;1.30;;;21.30;99.90;;;;;;5143586;27;20122;-66
2022/08/26 10:59:04;;;;;;;3.03;1.00;;;21.40;99.90;;;;;;5119294;27;20035;-66
2022/08/26 11:01:41;;;;;;;6.90;1.38;;;21.40;99.90;;;;;;5123004;27;20046;-66
2022/08/26 11:04:36;;;;;;;3.88;1.00;;;21.40;99.90;;;;;;5120984;27;20049;-65
2022/08/26 11:07:39;;;;;;;5.40;1.20;;;21.20;99.90;;;;;;5136443;27;20039;-66
2022/08/26 11:10:29;;;;;;;8.23;1.45;;;21.30;99.90;;;;;;5120500;27;20394;-67
2022/08/26 11:13:02;;;;;;;2.70;1.10;;;21.30;99.90;;;;;;5119218;27;20042;-66
2022/08/26 11:15:28;;;;;;;5.45;1.50;;;21.40;99.90;;;;;;5116989;27;20040;-67
2022/08/26 11:17:58;;;;;;;5.47;1.40;;;21.40;99.90;;;;;;5122757;27;20051;-66
2022/08/26 11:20:33;;;;;;;4.32;1.08;;;21.40;99.90;;;;;;5118202;27;20072;-64
2022/08/26 11:23:27;;;;;;;4.07;1.25;;;21.30;99.90;;;;;;5135151;27;20466;-65
2022/08/26 11:25:55;;;;;;;5.82;1.15;;;21.30;99.90;;;;;;5116249;27;20047;-72
2022/08/26 11:28:48;;;;;;;4.47;1.42;;;21.30;99.90;;;;;;5121557;27;20409;-66
2022/08/26 11:31:26;;;;;;;5.07;1.20;;;21.40;99.90;;;;;;5133059;27;20125;-65
2022/08/26 11:34:05;;;;;;;5.25;1.00;;;21.30;99.90;;;;;;5103352;27;20042;-66
2022/08/26 11:36:46;;;;;;;5.75;1.20;;;21.30;99.90;;;;;;5136656;27;20046;-66
2022/08/26 11:39:34;;;;;;;4.35;1.40;;;21.50;99.90;;;;;;5136246;27;20050;-66
2022/08/26 11:42:22;;;;;;;7.15;1.25;;;21.50;99.90;;;;;;5121795;27;20086;-66
2022/08/26 11:44:51;;;;;;;4.10;1.45;;;21.60;99.90;;;;;;5119216;27;20043;-67
2022/08/26 11:47:27;;;;;;;6.55;1.25;;;21.70;99.90;;;;;;5134910;27;20042;-65
2022/08/26 11:50:10;;;;;;;3.83;1.13;;;21.60;99.90;;;;;;5138570;27;20035;-66
2022/08/26 11:52:36;;;;;;;4.85;0.98;;;21.60;99.90;;;;;;5123206;27;20087;-65
2022/08/26 11:55:10;;;;;;;4.50;1.00;;;21.50;99.90;;;;;;5121160;27;20393;-66
2022/08/26 11:57:46;;;;;;;3.17;1.30;;;21.50;99.90;;;;;;5118150;27;20043;-66
2022/08/26 12:00:29;;;;;;;4.38;1.95;;;21.40;99.90;;;;;;5117998;27;20053;-65
2022/08/26 12:03:00;;;;;;;5.60;1.85;;;21.50;99.90;;;;;;5135739;27;20054;-65
2022/08/26 12:05:34;;;;;;;3.75;1.30;;;21.50;99.90;;;;;;5141879;27;20106;-66
2022/08/26 12:08:06;;;;;;;5.85;1.33;;;21.50;99.90;;;;;;5118619;27;20439;-67
2022/08/26 12:10:33;;;;;;;4.25;1.10;;;21.70;99.90;;;;;;5121438;28;20047;-67
2022/08/26 12:13:01;;;;;;;3.42;0.93;;;21.80;99.90;;;;;;5123985;27;20042;-66
2022/08/26 12:15:28;;;;;;;4.78;1.10;;;21.90;99.90;;;;;;5121951;27;20487;-67
2022/08/26 12:17:54;;;;;;;5.40;1.33;;;21.80;99.90;;;;;;5120372;27;20121;-66
2022/08/26 12:20:47;;;;;;;4.53;1.20;;;21.50;99.90;;;;;;5121191;27;20184;-67
2022/08/26 12:23:33;;;;;;;4.68;1.58;;;21.50;99.90;;;;;;5118366;27;20490;-68
2022/08/26 12:26:27;;;;;;;6.60;1.98;;;21.50;99.90;;;;;;5120352;27;20047;-67
2022/08/26 12:29:04;;;;;;;4.65;1.30;;;21.50;99.90;;;;;;5139870;27;20200;-67
2022/08/26 12:31:33;;;;;;;8.82;1.92;;;21.30;99.90;;;;;;5136848;27;20047;-67
2022/08/26 12:34:01;;;;;;;4.93;1.45;;;21.30;99.90;;;;;;5120300;27;20038;-67
2022/08/26 12:36:32;;;;;;;7.30;2.38;;;21.30;99.90;;;;;;5137980;27;20078;-65
2022/08/26 12:39:12;;;;;;;5.45;1.10;;;21.30;99.90;;;;;;5139986;27;20368;-66
2022/08/26 12:41:50;;;;;;;7.43;1.42;;;21.20;99.90;;;;;;5137257;27;20099;-66
2022/08/26 12:44:44;;;;;;;4.57;1.42;;;21.10;99.90;;;;;;5140588;27;20085;-65
2022/08/26 12:47:25;;;;;;;6.50;1.50;;;21.00;99.90;;;;;;5121414;27;20085;-66
2022/08/26 12:50:18;;;;;;;5.05;1.35;;;20.90;99.90;;;;;;5125207;27;20099;-65
2022/08/26 12:53:07;;;;;;;11.57;2.35;;;20.90;99.90;;;;;;5123715;27;20035;-66
2022/08/26 12:55:49;;;;;;;29.45;4.18;;;20.80;99.90;;;;;;5139652;27;20041;-65
2022/08/26 12:58:14;;;;;;;9.95;1.73;;;20.70;99.90;;;;;;5123843;27;20050;-66
2022/08/26 13:01:03;;;;;;;5.43;1.27;;;20.70;99.90;;;;;;5122454;27;20039;-65
2022/08/26 13:03:29;;;;;;;5.40;1.10;;;20.70;99.90;;;;;;5130810;27;20051;-65
2022/08/26 13:06:22;;;;;;;6.68;1.27;;;20.60;99.90;;;;;;5128704;27;20039;-66
2022/08/26 13:09:08;;;;;;;5.90;1.10;;;20.70;99.90;;;;;;5141485;27;20042;-67